Terminal Aerodrome Forecast
Issued by NWS

Home | Current Version | Previous Version | Text Only | Print | Product List | Glossary On
Versions: 1 2 3 4 5 6 7 8 9 10 11 12 13 14 15
821
FTUS43 KICT 230540
TAFCNU
TAF
KCNU 230540Z 2306/2406 VRB03KT P6SM BKN250
     FM231100 06007KT 5SM BR SCT005 BKN130
     FM231400 08009KT 5SM BR OVC003
     FM231700 11007KT P6SM SCT020
     FM231900 18013KT P6SM SCT025
     FM232100 18017KT P6SM SKC=

USA.gov is the U.S. government's official web portal to all federal, state and local government web resources and services.